sensor_id;sensor_type;location;lat;lon;timestamp;temperature;humidity
16060;DHT22;8134;49.552;7.632;2023-03-01T07:23:47;1.10;99.90
16060;DHT22;8134;49.552;7.632;2023-03-01T07:26:16;1.20;99.90
16060;DHT22;8134;49.552;7.632;2023-03-01T07:28:42;1.40;99.90
16060;DHT22;8134;49.552;7.632;2023-03-01T07:31:11;1.60;99.90
16060;DHT22;8134;49.552;7.632;2023-03-01T07:33:40;1.70;99.90
16060;DHT22;8134;49.552;7.632;2023-03-01T07:36:08;1.90;99.90
16060;DHT22;8134;49.552;7.632;2023-03-01T07:38:34;2.00;99.90
16060;DHT22;8134;49.552;7.632;2023-03-01T07:41:00;2.10;99.90
16060;DHT22;8134;49.552;7.632;2023-03-01T07:43:27;2.20;99.90
16060;DHT22;8134;49.552;7.632;2023-03-01T07:45:52;2.20;99.90
16060;DHT22;8134;49.552;7.632;2023-03-01T07:48:18;2.30;99.90
16060;DHT22;8134;49.552;7.632;2023-03-01T07:50:44;2.30;99.90
16060;DHT22;8134;49.552;7.632;2023-03-01T07:53:09;2.20;99.90
16060;DHT22;8134;49.552;7.632;2023-03-01T07:55:38;2.10;99.80
16060;DHT22;8134;49.552;7.632;2023-03-01T07:58:07;2.10;99.90
16060;DHT22;8134;49.552;7.632;2023-03-01T08:00:33;2.10;99.90
16060;DHT22;8134;49.552;7.632;2023-03-01T08:02:59;2.10;99.70
16060;DHT22;8134;49.552;7.632;2023-03-01T08:05:25;2.00;99.90
16060;DHT22;8134;49.552;7.632;2023-03-01T08:07:51;2.00;99.60
16060;DHT22;8134;49.552;7.632;2023-03-01T08:10:16;1.90;99.40
16060;DHT22;8134;49.552;7.632;2023-03-01T08:12:42;1.90;99.80
16060;DHT22;8134;49.552;7.632;2023-03-01T08:15:07;2.00;99.50
16060;DHT22;8134;49.552;7.632;2023-03-01T08:17:33;2.00;99.50
16060;DHT22;8134;49.552;7.632;2023-03-01T08:19:59;2.10;99.30
16060;DHT22;8134;49.552;7.632;2023-03-01T08:22:24;2.00;99.20
16060;DHT22;8134;49.552;7.632;2023-03-01T08:24:53;2.00;98.90
16060;DHT22;8134;49.552;7.632;2023-03-01T08:27:21;2.00;98.90
16060;DHT22;8134;49.552;7.632;2023-03-01T08:29:46;2.10;98.60
16060;DHT22;8134;49.552;7.632;2023-03-01T08:32:12;2.00;98.50
16060;DHT22;8134;49.552;7.632;2023-03-01T08:34:37;2.00;98.40
16060;DHT22;8134;49.552;7.632;2023-03-01T08:37:03;2.10;98.20
16060;DHT22;8134;49.552;7.632;2023-03-01T08:39:29;2.10;98.50
16060;DHT22;8134;49.552;7.632;2023-03-01T08:41:54;2.20;98.20
16060;DHT22;8134;49.552;7.632;2023-03-01T08:44:23;2.20;98.40
16060;DHT22;8134;49.552;7.632;2023-03-01T08:46:49;2.20;98.50
16060;DHT22;8134;49.552;7.632;2023-03-01T08:49:17;2.30;98.00
16060;DHT22;8134;49.552;7.632;2023-03-01T08:51:43;2.30;97.80
16060;DHT22;8134;49.552;7.632;2023-03-01T08:54:30;2.30;97.50
16060;DHT22;8134;49.552;7.632;2023-03-01T08:56:58;2.30;97.70
16060;DHT22;8134;49.552;7.632;2023-03-01T08:59:29;2.40;97.70
16060;DHT22;8134;49.552;7.632;2023-03-01T09:01:55;2.50;97.80
16060;DHT22;8134;49.552;7.632;2023-03-01T09:04:21;2.60;97.50
16060;DHT22;8134;49.552;7.632;2023-03-01T09:06:47;2.60;97.50
16060;DHT22;8134;49.552;7.632;2023-03-01T09:09:16;2.70;97.60
16060;DHT22;8134;49.552;7.632;2023-03-01T09:11:42;2.80;97.10
16060;DHT22;8134;49.552;7.632;2023-03-01T09:14:11;2.80;97.70
16060;DHT22;8134;49.552;7.632;2023-03-01T09:16:43;2.80;97.10
16060;DHT22;8134;49.552;7.632;2023-03-01T09:19:09;2.80;96.60
16060;DHT22;8134;49.552;7.632;2023-03-01T09:21:37;2.90;96.40
16060;DHT22;8134;49.552;7.632;2023-03-01T09:24:03;2.90;96.60
16060;DHT22;8134;49.552;7.632;2023-03-01T09:26:28;2.90;96.70
16060;DHT22;8134;49.552;7.632;2023-03-01T09:28:55;3.00;96.80
16060;DHT22;8134;49.552;7.632;2023-03-01T09:31:26;3.10;96.00
16060;DHT22;8134;49.552;7.632;2023-03-01T09:33:52;3.20;96.40
16060;DHT22;8134;49.552;7.632;2023-03-01T09:36:20;3.20;96.40
16060;DHT22;8134;49.552;7.632;2023-03-01T09:38:52;3.30;96.30
16060;DHT22;8134;49.552;7.632;2023-03-01T09:41:38;3.40;96.70
16060;DHT22;8134;49.552;7.632;2023-03-01T09:46:52;3.60;95.90
16060;DHT22;8134;49.552;7.632;2023-03-01T09:49:28;3.70;95.70
16060;DHT22;8134;49.552;7.632;2023-03-01T09:54:30;3.70;95.10
16060;DHT22;8134;49.552;7.632;2023-03-01T09:57:15;3.70;95.10
16060;DHT22;8134;49.552;7.632;2023-03-01T10:00:00;3.80;95.00
16060;DHT22;8134;49.552;7.632;2023-03-01T10:04:53;3.90;95.10
16060;DHT22;8134;49.552;7.632;2023-03-01T10:10:07;3.90;94.90
16060;DHT22;8134;49.552;7.632;2023-03-01T10:12:37;4.00;94.90
16060;DHT22;8134;49.552;7.632;2023-03-01T10:15:11;4.00;94.80
16060;DHT22;8134;49.552;7.632;2023-03-01T10:17:52;4.00;94.50
16060;DHT22;8134;49.552;7.632;2023-03-01T10:20:21;4.10;95.20
16060;DHT22;8134;49.552;7.632;2023-03-01T10:22:48;4.10;94.40
16060;DHT22;8134;49.552;7.632;2023-03-01T10:26:07;4.10;94.30
16060;DHT22;8134;49.552;7.632;2023-03-01T10:28:16;4.20;94.10
16060;DHT22;8134;49.552;7.632;2023-03-01T10:30:42;4.30;94.30
16060;DHT22;8134;49.552;7.632;2023-03-01T10:33:13;4.40;94.20
16060;DHT22;8134;49.552;7.632;2023-03-01T10:35:42;4.40;93.90
16060;DHT22;8134;49.552;7.632;2023-03-01T10:38:11;4.50;93.90
16060;DHT22;8134;49.552;7.632;2023-03-01T10:40:52;4.50;93.70
16060;DHT22;8134;49.552;7.632;2023-03-01T10:43:18;4.60;93.80
16060;DHT22;8134;49.552;7.632;2023-03-01T10:45:44;4.60;93.40
16060;DHT22;8134;49.552;7.632;2023-03-01T10:50:41;4.70;93.30
16060;DHT22;8134;49.552;7.632;2023-03-01T10:53:16;4.80;93.30
16060;DHT22;8134;49.552;7.632;2023-03-01T10:55:45;4.80;93.20
16060;DHT22;8134;49.552;7.632;2023-03-01T10:58:17;4.90;93.10
16060;DHT22;8134;49.552;7.632;2023-03-01T11:03:26;4.90;92.90
16060;DHT22;8134;49.552;7.632;2023-03-01T11:05:54;4.90;93.10
16060;DHT22;8134;49.552;7.632;2023-03-01T11:08:33;5.10;93.20
16060;DHT22;8134;49.552;7.632;2023-03-01T11:16:14;5.10;92.30
16060;DHT22;8134;49.552;7.632;2023-03-01T11:18:39;5.20;92.80
16060;DHT22;8134;49.552;7.632;2023-03-01T11:21:05;5.20;92.50
16060;DHT22;8134;49.552;7.632;2023-03-01T11:23:31;5.20;92.10
16060;DHT22;8134;49.552;7.632;2023-03-01T11:26:07;5.30;91.90
16060;DHT22;8134;49.552;7.632;2023-03-01T11:28:34;5.30;91.90
16060;DHT22;8134;49.552;7.632;2023-03-01T11:31:09;5.40;91.70
16060;DHT22;8134;49.552;7.632;2023-03-01T11:36:22;5.50;91.20
16060;DHT22;8134;49.552;7.632;2023-03-01T11:38:51;5.50;91.30
16060;DHT22;8134;49.552;7.632;2023-03-01T11:41:21;5.50;91.60
16060;DHT22;8134;49.552;7.632;2023-03-01T11:43:58;5.50;91.40
16060;DHT22;8134;49.552;7.632;2023-03-01T11:54:18;5.60;91.40
16060;DHT22;8134;49.552;7.632;2023-03-01T11:57:33;5.70;91.30
16060;DHT22;8134;49.552;7.632;2023-03-01T11:59:42;5.60;91.20
16060;DHT22;8134;49.552;7.632;2023-03-01T12:07:45;5.70;91.50
16060;DHT22;8134;49.552;7.632;2023-03-01T12:13:03;5.70;91.30
16060;DHT22;8134;49.552;7.632;2023-03-01T12:18:21;5.90;91.20
16060;DHT22;8134;49.552;7.632;2023-03-01T12:29:21;5.90;91.00
16060;DHT22;8134;49.552;7.632;2023-03-01T12:31:56;6.10;91.10
16060;DHT22;8134;49.552;7.632;2023-03-01T12:37:07;6.20;91.30
16060;DHT22;8134;49.552;7.632;2023-03-01T12:50:23;6.50;90.50
16060;DHT22;8134;49.552;7.632;2023-03-01T12:52:57;6.50;90.40
16060;DHT22;8134;49.552;7.632;2023-03-01T12:55:36;6.50;90.10
16060;DHT22;8134;49.552;7.632;2023-03-01T12:58:20;6.60;91.30
16060;DHT22;8134;49.552;7.632;2023-03-01T13:01:00;6.60;90.60
16060;DHT22;8134;49.552;7.632;2023-03-01T13:11:00;6.70;90.20
16060;DHT22;8134;49.552;7.632;2023-03-01T13:13:27;6.70;90.70
16060;DHT22;8134;49.552;7.632;2023-03-01T13:15:52;6.70;90.20
16060;DHT22;8134;49.552;7.632;2023-03-01T13:28:38;6.80;89.50
16060;DHT22;8134;49.552;7.632;2023-03-01T13:34:01;7.00;90.40
16060;DHT22;8134;49.552;7.632;2023-03-01T13:39:00;7.20;88.70
16060;DHT22;8134;49.552;7.632;2023-03-01T13:46:49;7.20;88.70
16060;DHT22;8134;49.552;7.632;2023-03-01T13:49:20;7.20;88.00
16060;DHT22;8134;49.552;7.632;2023-03-01T13:51:46;7.30;87.90
16060;DHT22;8134;49.552;7.632;2023-03-01T13:54:12;7.30;86.80
16060;DHT22;8134;49.552;7.632;2023-03-01T13:56:39;7.50;87.60
16060;DHT22;8134;49.552;7.632;2023-03-01T13:59:15;7.40;87.30
16060;DHT22;8134;49.552;7.632;2023-03-01T14:01:41;7.50;87.40
16060;DHT22;8134;49.552;7.632;2023-03-01T14:04:21;7.40;86.60
16060;DHT22;8134;49.552;7.632;2023-03-01T14:06:46;7.40;86.80
16060;DHT22;8134;49.552;7.632;2023-03-01T14:09:16;7.50;87.50
16060;DHT22;8134;49.552;7.632;2023-03-01T14:11:49;7.50;86.60
16060;DHT22;8134;49.552;7.632;2023-03-01T14:19:33;7.50;85.90
16060;DHT22;8134;49.552;7.632;2023-03-01T14:22:05;7.60;85.10
16060;DHT22;8134;49.552;7.632;2023-03-01T14:24:37;7.60;86.20
16060;DHT22;8134;49.552;7.632;2023-03-01T14:27:03;7.70;86.00
16060;DHT22;8134;49.552;7.632;2023-03-01T14:29:34;7.70;85.30
16060;DHT22;8134;49.552;7.632;2023-03-01T14:32:17;7.80;84.30
16060;DHT22;8134;49.552;7.632;2023-03-01T14:34:48;7.80;84.50
16060;DHT22;8134;49.552;7.632;2023-03-01T14:39:42;8.00;84.30
16060;DHT22;8134;49.552;7.632;2023-03-01T14:42:11;8.00;84.20
16060;DHT22;8134;49.552;7.632;2023-03-01T14:44:42;8.10;84.20
16060;DHT22;8134;49.552;7.632;2023-03-01T14:47:16;8.20;84.10
16060;DHT22;8134;49.552;7.632;2023-03-01T14:49:43;8.10;83.50
16060;DHT22;8134;49.552;7.632;2023-03-01T14:52:20;8.10;82.90
16060;DHT22;8134;49.552;7.632;2023-03-01T14:54:47;8.20;83.00
16060;DHT22;8134;49.552;7.632;2023-03-01T14:59:43;8.30;82.60
16060;DHT22;8134;49.552;7.632;2023-03-01T15:02:11;8.30;81.50
16060;DHT22;8134;49.552;7.632;2023-03-01T15:04:42;8.30;82.30
16060;DHT22;8134;49.552;7.632;2023-03-01T15:07:09;8.40;81.00
16060;DHT22;8134;49.552;7.632;2023-03-01T15:09:37;8.40;80.60
16060;DHT22;8134;49.552;7.632;2023-03-01T15:12:23;8.50;79.70
16060;DHT22;8134;49.552;7.632;2023-03-01T15:14:48;8.30;79.50
16060;DHT22;8134;49.552;7.632;2023-03-01T15:17:35;8.40;79.20
16060;DHT22;8134;49.552;7.632;2023-03-01T15:20:04;8.50;79.60
16060;DHT22;8134;49.552;7.632;2023-03-01T15:22:31;8.50;79.80
16060;DHT22;8134;49.552;7.632;2023-03-01T15:24:56;8.50;80.50
16060;DHT22;8134;49.552;7.632;2023-03-01T15:27:22;8.60;78.50
16060;DHT22;8134;49.552;7.632;2023-03-01T15:29:50;8.50;79.70
16060;DHT22;8134;49.552;7.632;2023-03-01T15:32:26;8.40;78.90
16060;DHT22;8134;49.552;7.632;2023-03-01T15:34:56;8.40;78.50
16060;DHT22;8134;49.552;7.632;2023-03-01T15:43:05;8.30;79.60
16060;DHT22;8134;49.552;7.632;2023-03-01T15:45:34;8.30;78.30
16060;DHT22;8134;49.552;7.632;2023-03-01T15:48:23;8.20;78.50
16060;DHT22;8134;49.552;7.632;2023-03-01T15:50:58;8.10;78.60
16060;DHT22;8134;49.552;7.632;2023-03-01T15:53:23;8.10;78.70
16060;DHT22;8134;49.552;7.632;2023-03-01T15:55:49;8.10;78.00
16060;DHT22;8134;49.552;7.632;2023-03-01T15:58:17;8.00;78.10
16060;DHT22;8134;49.552;7.632;2023-03-01T16:00:44;8.00;78.70
16060;DHT22;8134;49.552;7.632;2023-03-01T16:03:12;8.00;78.90
16060;DHT22;8134;49.552;7.632;2023-03-01T16:05:38;7.90;80.40
16060;DHT22;8134;49.552;7.632;2023-03-01T16:08:04;7.90;81.80
16060;DHT22;8134;49.552;7.632;2023-03-01T16:10:34;7.90;79.90
16060;DHT22;8134;49.552;7.632;2023-03-01T16:13:03;7.90;79.20
16060;DHT22;8134;49.552;7.632;2023-03-01T16:15:30;7.80;79.40
16060;DHT22;8134;49.552;7.632;2023-03-01T16:17:57;7.80;79.90
16060;DHT22;8134;49.552;7.632;2023-03-01T16:20:29;7.80;79.20
16060;DHT22;8134;49.552;7.632;2023-03-01T16:23:01;7.70;79.60
16060;DHT22;8134;49.552;7.632;2023-03-01T16:25:30;7.70;79.50
16060;DHT22;8134;49.552;7.632;2023-03-01T16:27:56;7.60;79.80
16060;DHT22;8134;49.552;7.632;2023-03-01T16:30:23;7.60;81.20
16060;DHT22;8134;49.552;7.632;2023-03-01T16:32:49;7.50;83.00
16060;DHT22;8134;49.552;7.632;2023-03-01T16:35:16;7.50;82.10
16060;DHT22;8134;49.552;7.632;2023-03-01T16:37:45;7.40;81.70
16060;DHT22;8134;49.552;7.632;2023-03-01T16:40:17;7.30;83.70
16060;DHT22;8134;49.552;7.632;2023-03-01T16:42:43;7.30;81.50
16060;DHT22;8134;49.552;7.632;2023-03-01T16:45:08;7.30;81.00
16060;DHT22;8134;49.552;7.632;2023-03-01T16:47:34;7.20;81.10
16060;DHT22;8134;49.552;7.632;2023-03-01T16:50:03;7.10;81.00
16060;DHT22;8134;49.552;7.632;2023-03-01T16:52:29;7.10;81.50
16060;DHT22;8134;49.552;7.632;2023-03-01T16:54:58;7.10;82.10
16060;DHT22;8134;49.552;7.632;2023-03-01T16:57:24;7.00;81.60
16060;DHT22;8134;49.552;7.632;2023-03-01T16:59:55;7.10;81.30
16060;DHT22;8134;49.552;7.632;2023-03-01T17:02:21;7.00;81.60
16060;DHT22;8134;49.552;7.632;2023-03-01T17:04:53;6.80;83.80
16060;DHT22;8134;49.552;7.632;2023-03-01T17:07:19;6.60;84.00
16060;DHT22;8134;49.552;7.632;2023-03-01T17:09:44;6.60;83.00
16060;DHT22;8134;49.552;7.632;2023-03-01T17:12:13;6.50;85.60
16060;DHT22;8134;49.552;7.632;2023-03-01T17:14:39;6.20;87.50
16060;DHT22;8134;49.552;7.632;2023-03-01T17:17:10;5.90;87.10
16060;DHT22;8134;49.552;7.632;2023-03-01T17:19:35;5.80;88.00
16060;DHT22;8134;49.552;7.632;2023-03-01T17:22:09;5.50;90.10
16060;DHT22;8134;49.552;7.632;2023-03-01T17:24:35;5.30;90.70
16060;DHT22;8134;49.552;7.632;2023-03-01T17:27:01;5.10;90.40
16060;DHT22;8134;49.552;7.632;2023-03-01T17:29:27;5.10;91.20
16060;DHT22;8134;49.552;7.632;2023-03-01T17:31:53;5.00;91.80
16060;DHT22;8134;49.552;7.632;2023-03-01T17:34:23;4.80;91.90
16060;DHT22;8134;49.552;7.632;2023-03-01T17:36:49;4.60;92.30
16060;DHT22;8134;49.552;7.632;2023-03-01T17:39:16;4.50;92.90
16060;DHT22;8134;49.552;7.632;2023-03-01T17:41:42;4.40;92.90
16060;DHT22;8134;49.552;7.632;2023-03-01T17:44:11;4.30;93.30
16060;DHT22;8134;49.552;7.632;2023-03-01T17:46:37;4.10;93.80
16060;DHT22;8134;49.552;7.632;2023-03-01T17:49:03;4.00;93.90
16060;DHT22;8134;49.552;7.632;2023-03-01T17:51:35;3.90;94.10
16060;DHT22;8134;49.552;7.632;2023-03-01T17:54:00;3.80;94.40
16060;DHT22;8134;49.552;7.632;2023-03-01T17:56:29;3.70;94.80
16060;DHT22;8134;49.552;7.632;2023-03-01T17:58:56;3.60;95.20
16060;DHT22;8134;49.552;7.632;2023-03-01T18:01:21;3.50;95.30
16060;DHT22;8134;49.552;7.632;2023-03-01T18:03:49;3.40;95.50
16060;DHT22;8134;49.552;7.632;2023-03-01T18:06:16;3.30;95.80
16060;DHT22;8134;49.552;7.632;2023-03-01T18:08:42;3.30;96.20
16060;DHT22;8134;49.552;7.632;2023-03-01T18:11:09;3.30;96.40
16060;DHT22;8134;49.552;7.632;2023-03-01T18:13:35;3.20;96.20
16060;DHT22;8134;49.552;7.632;2023-03-01T18:16:03;3.10;96.60
16060;DHT22;8134;49.552;7.632;2023-03-01T18:18:29;3.00;96.80
16060;DHT22;8134;49.552;7.632;2023-03-01T18:20:55;3.00;96.40
16060;DHT22;8134;49.552;7.632;2023-03-01T18:23:22;2.90;96.90
16060;DHT22;8134;49.552;7.632;2023-03-01T18:25:47;2.90;96.60
16060;DHT22;8134;49.552;7.632;2023-03-01T18:28:13;2.90;96.90
16060;DHT22;8134;49.552;7.632;2023-03-01T18:30:38;2.90;97.20
16060;DHT22;8134;49.552;7.632;2023-03-01T18:33:07;2.90;96.90
16060;DHT22;8134;49.552;7.632;2023-03-01T18:35:36;2.90;96.60
16060;DHT22;8134;49.552;7.632;2023-03-01T18:38:05;2.80;97.10
16060;DHT22;8134;49.552;7.632;2023-03-01T18:40:31;2.70;97.40
16060;DHT22;8134;49.552;7.632;2023-03-01T18:42:57;2.70;97.90
16060;DHT22;8134;49.552;7.632;2023-03-01T18:45:22;2.60;98.10
16060;DHT22;8134;49.552;7.632;2023-03-01T18:47:48;2.60;97.80
16060;DHT22;8134;49.552;7.632;2023-03-01T18:50:15;2.60;98.10
16060;DHT22;8134;49.552;7.632;2023-03-01T18:52:40;2.60;97.90
16060;DHT22;8134;49.552;7.632;2023-03-01T18:55:06;2.50;98.10
16060;DHT22;8134;49.552;7.632;2023-03-01T18:57:31;2.60;98.30
16060;DHT22;8134;49.552;7.632;2023-03-01T18:59:57;2.60;98.60
16060;DHT22;8134;49.552;7.632;2023-03-01T19:02:22;2.60;97.80
16060;DHT22;8134;49.552;7.632;2023-03-01T19:04:49;2.70;97.90
16060;DHT22;8134;49.552;7.632;2023-03-01T19:07:15;2.70;97.90
16060;DHT22;8134;49.552;7.632;2023-03-01T19:09:40;2.70;97.60
16060;DHT22;8134;49.552;7.632;2023-03-01T19:12:06;2.70;97.80
16060;DHT22;8134;49.552;7.632;2023-03-01T19:14:31;2.60;97.80
16060;DHT22;8134;49.552;7.632;2023-03-01T19:16:57;2.60;97.90
16060;DHT22;8134;49.552;7.632;2023-03-01T19:19:25;2.60;97.70
16060;DHT22;8134;49.552;7.632;2023-03-01T19:21:51;2.60;97.70
16060;DHT22;8134;49.552;7.632;2023-03-01T19:24:16;2.70;97.80
16060;DHT22;8134;49.552;7.632;2023-03-01T19:26:43;2.70;97.80
16060;DHT22;8134;49.552;7.632;2023-03-01T19:29:08;2.70;97.60
16060;DHT22;8134;49.552;7.632;2023-03-01T19:31:36;2.60;97.70
16060;DHT22;8134;49.552;7.632;2023-03-01T19:34:02;2.50;98.00
16060;DHT22;8134;49.552;7.632;2023-03-01T19:36:28;2.60;98.00
16060;DHT22;8134;49.552;7.632;2023-03-01T19:39:04;2.40;98.50
16060;DHT22;8134;49.552;7.632;2023-03-01T19:41:30;2.30;98.70
16060;DHT22;8134;49.552;7.632;2023-03-01T19:43:56;2.20;98.60
16060;DHT22;8134;49.552;7.632;2023-03-01T19:46:28;2.20;99.00
16060;DHT22;8134;49.552;7.632;2023-03-01T19:48:54;2.20;99.20
16060;DHT22;8134;49.552;7.632;2023-03-01T19:51:19;2.10;99.30
16060;DHT22;8134;49.552;7.632;2023-03-01T19:53:45;2.10;99.20
16060;DHT22;8134;49.552;7.632;2023-03-01T19:56:11;2.10;99.20
16060;DHT22;8134;49.552;7.632;2023-03-01T19:58:37;2.00;99.60
16060;DHT22;8134;49.552;7.632;2023-03-01T20:01:03;2.00;99.70
16060;DHT22;8134;49.552;7.632;2023-03-01T20:03:33;1.90;99.70
16060;DHT22;8134;49.552;7.632;2023-03-01T20:06:12;1.90;99.70
16060;DHT22;8134;49.552;7.632;2023-03-01T20:08:38;1.90;99.70
16060;DHT22;8134;49.552;7.632;2023-03-01T20:11:04;1.90;99.90
16060;DHT22;8134;49.552;7.632;2023-03-01T20:13:30;1.90;99.90
16060;DHT22;8134;49.552;7.632;2023-03-01T20:15:56;1.90;99.60
16060;DHT22;8134;49.552;7.632;2023-03-01T20:18:21;1.90;99.50
16060;DHT22;8134;49.552;7.632;2023-03-01T20:20:48;1.90;99.80
16060;DHT22;8134;49.552;7.632;2023-03-01T20:23:14;1.90;99.90
16060;DHT22;8134;49.552;7.632;2023-03-01T20:25:39;1.80;99.80
16060;DHT22;8134;49.552;7.632;2023-03-01T20:28:05;1.80;99.60
16060;DHT22;8134;49.552;7.632;2023-03-01T20:30:30;1.80;99.60
16060;DHT22;8134;49.552;7.632;2023-03-01T20:32:59;1.80;99.90
16060;DHT22;8134;49.552;7.632;2023-03-01T20:35:24;1.70;99.90
16060;DHT22;8134;49.552;7.632;2023-03-01T20:37:50;1.70;99.80
16060;DHT22;8134;49.552;7.632;2023-03-01T20:40:17;1.70;99.90
16060;DHT22;8134;49.552;7.632;2023-03-01T20:42:45;1.60;99.90
16060;DHT22;8134;49.552;7.632;2023-03-01T20:45:14;1.60;99.90
16060;DHT22;8134;49.552;7.632;2023-03-01T20:47:40;1.60;99.90
16060;DHT22;8134;49.552;7.632;2023-03-01T20:50:06;1.60;99.90
16060;DHT22;8134;49.552;7.632;2023-03-01T20:52:35;1.50;99.90
16060;DHT22;8134;49.552;7.632;2023-03-01T20:55:00;1.50;99.90
16060;DHT22;8134;49.552;7.632;2023-03-01T20:57:26;1.50;99.90
16060;DHT22;8134;49.552;7.632;2023-03-01T20:59:51;1.50;99.90
16060;DHT22;8134;49.552;7.632;2023-03-01T21:02:17;1.40;99.90
16060;DHT22;8134;49.552;7.632;2023-03-01T21:04:43;1.40;99.90
16060;DHT22;8134;49.552;7.632;2023-03-01T21:07:08;1.40;99.90
16060;DHT22;8134;49.552;7.632;2023-03-01T21:09:34;1.40;99.90
16060;DHT22;8134;49.552;7.632;2023-03-01T21:11:59;1.30;99.90
16060;DHT22;8134;49.552;7.632;2023-03-01T21:14:25;1.30;99.90
16060;DHT22;8134;49.552;7.632;2023-03-01T21:16:51;1.20;99.90
16060;DHT22;8134;49.552;7.632;2023-03-01T21:19:16;1.20;99.90
16060;DHT22;8134;49.552;7.632;2023-03-01T21:21:42;1.30;99.90
16060;DHT22;8134;49.552;7.632;2023-03-01T21:24:07;1.20;99.90
16060;DHT22;8134;49.552;7.632;2023-03-01T21:26:34;1.20;99.90
16060;DHT22;8134;49.552;7.632;2023-03-01T21:29:00;1.20;99.90
16060;DHT22;8134;49.552;7.632;2023-03-01T21:31:27;1.20;99.90
16060;DHT22;8134;49.552;7.632;2023-03-01T21:33:56;1.10;99.90
16060;DHT22;8134;49.552;7.632;2023-03-01T21:36:23;1.10;99.90
16060;DHT22;8134;49.552;7.632;2023-03-01T21:38:49;1.10;99.90
16060;DHT22;8134;49.552;7.632;2023-03-01T21:41:16;1.10;99.90
16060;DHT22;8134;49.552;7.632;2023-03-01T21:43:43;1.10;99.90
16060;DHT22;8134;49.552;7.632;2023-03-01T21:46:16;1.00;99.90
16060;DHT22;8134;49.552;7.632;2023-03-01T21:48:43;0.90;99.90
16060;DHT22;8134;49.552;7.632;2023-03-01T21:51:09;0.90;99.90
16060;DHT22;8134;49.552;7.632;2023-03-01T21:53:35;0.90;99.90
16060;DHT22;8134;49.552;7.632;2023-03-01T21:56:02;0.90;99.90
16060;DHT22;8134;49.552;7.632;2023-03-01T21:58:28;1.00;99.90
